sensor_id;sensor_type;location;lat;lon;timestamp;P1;durP1;ratioP1;P2;durP2;ratioP2
56239;SDS011;42154;51.992;5.896;2023-08-06T00:01:51;8.05;;;6.78;;
56239;SDS011;42154;51.992;5.896;2023-08-06T00:04:16;7.25;;;6.18;;
56239;SDS011;42154;51.992;5.896;2023-08-06T00:06:42;6.47;;;5.68;;
56239;SDS011;42154;51.992;5.896;2023-08-06T00:09:08;6.72;;;5.32;;
56239;SDS011;42154;51.992;5.896;2023-08-06T00:11:34;5.95;;;5.05;;
56239;SDS011;42154;51.992;5.896;2023-08-06T00:13:59;9.15;;;5.97;;
56239;SDS011;42154;51.992;5.896;2023-08-06T00:16:25;8.23;;;6.53;;
56239;SDS011;42154;51.992;5.896;2023-08-06T00:18:51;6.30;;;5.18;;
56239;SDS011;42154;51.992;5.896;2023-08-06T00:21:16;6.15;;;5.20;;
56239;SDS011;42154;51.992;5.896;2023-08-06T00:23:42;6.10;;;5.03;;
56239;SDS011;42154;51.992;5.896;2023-08-06T00:26:08;7.95;;;5.20;;
56239;SDS011;42154;51.992;5.896;2023-08-06T00:28:33;7.78;;;5.78;;
56239;SDS011;42154;51.992;5.896;2023-08-06T00:30:59;6.13;;;5.00;;
56239;SDS011;42154;51.992;5.896;2023-08-06T00:33:25;7.53;;;5.50;;
56239;SDS011;42154;51.992;5.896;2023-08-06T00:35:51;5.90;;;5.03;;
56239;SDS011;42154;51.992;5.896;2023-08-06T00:38:16;8.63;;;5.90;;
56239;SDS011;42154;51.992;5.896;2023-08-06T00:40:42;8.07;;;6.00;;
56239;SDS011;42154;51.992;5.896;2023-08-06T00:43:09;6.65;;;5.70;;
56239;SDS011;42154;51.992;5.896;2023-08-06T00:45:37;6.72;;;5.57;;
56239;SDS011;42154;51.992;5.896;2023-08-06T00:48:03;7.40;;;5.68;;
56239;SDS011;42154;51.992;5.896;2023-08-06T00:50:31;7.20;;;5.88;;
56239;SDS011;42154;51.992;5.896;2023-08-06T00:52:57;5.80;;;5.20;;
56239;SDS011;42154;51.992;5.896;2023-08-06T00:55:23;6.43;;;5.57;;
56239;SDS011;42154;51.992;5.896;2023-08-06T00:57:49;8.25;;;7.07;;
56239;SDS011;42154;51.992;5.896;2023-08-06T01:00:16;8.18;;;7.38;;
56239;SDS011;42154;51.992;5.896;2023-08-06T01:02:42;7.53;;;6.35;;
56239;SDS011;42154;51.992;5.896;2023-08-06T01:05:08;8.20;;;6.50;;
56239;SDS011;42154;51.992;5.896;2023-08-06T01:07:40;7.40;;;6.63;;
56239;SDS011;42154;51.992;5.896;2023-08-06T01:10:30;8.10;;;6.60;;
56239;SDS011;42154;51.992;5.896;2023-08-06T01:15:42;7.47;;;6.20;;
56239;SDS011;42154;51.992;5.896;2023-08-06T01:18:11;6.72;;;5.15;;
56239;SDS011;42154;51.992;5.896;2023-08-06T01:20:38;7.60;;;6.00;;
56239;SDS011;42154;51.992;5.896;2023-08-06T01:23:03;7.03;;;5.97;;
56239;SDS011;42154;51.992;5.896;2023-08-06T01:25:30;6.57;;;5.47;;
56239;SDS011;42154;51.992;5.896;2023-08-06T01:28:21;7.00;;;6.22;;
56239;SDS011;42154;51.992;5.896;2023-08-06T01:30:53;7.30;;;5.85;;
56239;SDS011;42154;51.992;5.896;2023-08-06T01:33:24;5.10;;;4.57;;
56239;SDS011;42154;51.992;5.896;2023-08-06T01:35:54;6.67;;;5.43;;
56239;SDS011;42154;51.992;5.896;2023-08-06T01:38:23;6.47;;;5.30;;
56239;SDS011;42154;51.992;5.896;2023-08-06T01:40:50;5.63;;;4.93;;
56239;SDS011;42154;51.992;5.896;2023-08-06T01:43:15;5.80;;;4.82;;
56239;SDS011;42154;51.992;5.896;2023-08-06T01:45:41;4.88;;;4.38;;
56239;SDS011;42154;51.992;5.896;2023-08-06T01:48:07;6.65;;;5.28;;
56239;SDS011;42154;51.992;5.896;2023-08-06T01:50:32;5.35;;;4.85;;
56239;SDS011;42154;51.992;5.896;2023-08-06T01:52:58;8.13;;;6.85;;
56239;SDS011;42154;51.992;5.896;2023-08-06T01:55:25;7.53;;;5.85;;
56239;SDS011;42154;51.992;5.896;2023-08-06T01:57:51;8.20;;;6.45;;
56239;SDS011;42154;51.992;5.896;2023-08-06T02:00:17;9.15;;;6.43;;
56239;SDS011;42154;51.992;5.896;2023-08-06T02:02:43;6.03;;;5.43;;
56239;SDS011;42154;51.992;5.896;2023-08-06T02:05:09;7.53;;;6.68;;
56239;SDS011;42154;51.992;5.896;2023-08-06T02:07:34;9.30;;;7.32;;
56239;SDS011;42154;51.992;5.896;2023-08-06T02:10:00;7.82;;;6.57;;
56239;SDS011;42154;51.992;5.896;2023-08-06T02:12:26;9.05;;;7.90;;
56239;SDS011;42154;51.992;5.896;2023-08-06T02:14:52;12.63;;;8.90;;
56239;SDS011;42154;51.992;5.896;2023-08-06T02:17:18;11.80;;;9.48;;
56239;SDS011;42154;51.992;5.896;2023-08-06T02:19:43;9.88;;;8.15;;
56239;SDS011;42154;51.992;5.896;2023-08-06T02:22:09;10.45;;;9.02;;
56239;SDS011;42154;51.992;5.896;2023-08-06T02:24:35;10.20;;;9.13;;
56239;SDS011;42154;51.992;5.896;2023-08-06T02:27:01;11.52;;;9.50;;
56239;SDS011;42154;51.992;5.896;2023-08-06T02:29:27;12.40;;;10.77;;
56239;SDS011;42154;51.992;5.896;2023-08-06T02:31:53;11.10;;;9.35;;
56239;SDS011;42154;51.992;5.896;2023-08-06T02:34:18;11.05;;;9.85;;
56239;SDS011;42154;51.992;5.896;2023-08-06T02:36:45;12.85;;;10.70;;
56239;SDS011;42154;51.992;5.896;2023-08-06T02:39:11;12.40;;;10.18;;
56239;SDS011;42154;51.992;5.896;2023-08-06T02:41:36;9.65;;;8.65;;
56239;SDS011;42154;51.992;5.896;2023-08-06T02:44:02;10.82;;;9.43;;
56239;SDS011;42154;51.992;5.896;2023-08-06T02:46:28;9.25;;;7.22;;
56239;SDS011;42154;51.992;5.896;2023-08-06T02:48:54;7.85;;;6.95;;
56239;SDS011;42154;51.992;5.896;2023-08-06T02:51:20;7.65;;;6.85;;
56239;SDS011;42154;51.992;5.896;2023-08-06T02:53:47;7.90;;;6.80;;
56239;SDS011;42154;51.992;5.896;2023-08-06T02:56:15;7.00;;;5.43;;
56239;SDS011;42154;51.992;5.896;2023-08-06T02:59:11;6.25;;;5.65;;
56239;SDS011;42154;51.992;5.896;2023-08-06T03:01:47;5.15;;;4.65;;
56239;SDS011;42154;51.992;5.896;2023-08-06T03:04:19;5.57;;;4.95;;
56239;SDS011;42154;51.992;5.896;2023-08-06T03:06:48;6.70;;;5.65;;
56239;SDS011;42154;51.992;5.896;2023-08-06T03:09:15;5.30;;;4.53;;
56239;SDS011;42154;51.992;5.896;2023-08-06T03:11:41;5.63;;;4.97;;
56239;SDS011;42154;51.992;5.896;2023-08-06T03:14:11;9.67;;;7.30;;
56239;SDS011;42154;51.992;5.896;2023-08-06T03:16:38;6.88;;;5.72;;
56239;SDS011;42154;51.992;5.896;2023-08-06T03:19:03;5.60;;;4.57;;
56239;SDS011;42154;51.992;5.896;2023-08-06T03:21:29;6.72;;;5.35;;
56239;SDS011;42154;51.992;5.896;2023-08-06T03:23:56;5.40;;;4.90;;
56239;SDS011;42154;51.992;5.896;2023-08-06T03:26:25;5.57;;;4.03;;
56239;SDS011;42154;51.992;5.896;2023-08-06T03:28:51;4.68;;;3.67;;
56239;SDS011;42154;51.992;5.896;2023-08-06T03:31:17;3.92;;;3.33;;
56239;SDS011;42154;51.992;5.896;2023-08-06T03:33:44;5.18;;;4.68;;
56239;SDS011;42154;51.992;5.896;2023-08-06T03:36:14;5.78;;;4.85;;
56239;SDS011;42154;51.992;5.896;2023-08-06T03:38:41;7.60;;;6.43;;
56239;SDS011;42154;51.992;5.896;2023-08-06T03:41:08;5.35;;;4.75;;
56239;SDS011;42154;51.992;5.896;2023-08-06T03:43:34;5.10;;;4.60;;
56239;SDS011;42154;51.992;5.896;2023-08-06T03:46:02;5.85;;;4.85;;
56239;SDS011;42154;51.992;5.896;2023-08-06T03:48:28;5.28;;;4.60;;
56239;SDS011;42154;51.992;5.896;2023-08-06T03:50:54;5.72;;;4.85;;
56239;SDS011;42154;51.992;5.896;2023-08-06T03:53:20;7.88;;;4.93;;
56239;SDS011;42154;51.992;5.896;2023-08-06T03:55:47;5.95;;;5.05;;
56239;SDS011;42154;51.992;5.896;2023-08-06T03:58:13;7.05;;;5.53;;
56239;SDS011;42154;51.992;5.896;2023-08-06T04:00:39;7.95;;;5.63;;
56239;SDS011;42154;51.992;5.896;2023-08-06T04:03:05;6.57;;;5.13;;
56239;SDS011;42154;51.992;5.896;2023-08-06T04:05:31;6.07;;;5.20;;
56239;SDS011;42154;51.992;5.896;2023-08-06T04:07:58;6.95;;;4.28;;
56239;SDS011;42154;51.992;5.896;2023-08-06T04:10:25;6.05;;;4.32;;
56239;SDS011;42154;51.992;5.896;2023-08-06T04:12:50;5.30;;;4.70;;
56239;SDS011;42154;51.992;5.896;2023-08-06T04:15:16;7.38;;;5.05;;
56239;SDS011;42154;51.992;5.896;2023-08-06T04:17:42;6.00;;;5.13;;
56239;SDS011;42154;51.992;5.896;2023-08-06T04:20:08;6.10;;;5.30;;
56239;SDS011;42154;51.992;5.896;2023-08-06T04:22:34;5.60;;;5.00;;
56239;SDS011;42154;51.992;5.896;2023-08-06T04:24:59;7.03;;;6.22;;
56239;SDS011;42154;51.992;5.896;2023-08-06T04:27:25;8.88;;;5.70;;
56239;SDS011;42154;51.992;5.896;2023-08-06T04:29:51;7.45;;;6.53;;
56239;SDS011;42154;51.992;5.896;2023-08-06T04:32:17;8.68;;;7.15;;
56239;SDS011;42154;51.992;5.896;2023-08-06T04:34:47;7.93;;;6.53;;
56239;SDS011;42154;51.992;5.896;2023-08-06T04:37:14;7.40;;;6.55;;
56239;SDS011;42154;51.992;5.896;2023-08-06T04:39:40;8.55;;;6.20;;
56239;SDS011;42154;51.992;5.896;2023-08-06T04:42:06;9.82;;;7.55;;
56239;SDS011;42154;51.992;5.896;2023-08-06T04:44:32;9.15;;;6.72;;
56239;SDS011;42154;51.992;5.896;2023-08-06T04:46:57;8.50;;;6.50;;
56239;SDS011;42154;51.992;5.896;2023-08-06T04:49:23;7.88;;;6.20;;
56239;SDS011;42154;51.992;5.896;2023-08-06T04:51:50;8.55;;;5.95;;
56239;SDS011;42154;51.992;5.896;2023-08-06T04:54:15;7.25;;;6.03;;
56239;SDS011;42154;51.992;5.896;2023-08-06T04:56:41;6.78;;;6.07;;
56239;SDS011;42154;51.992;5.896;2023-08-06T04:59:07;7.72;;;6.53;;
56239;SDS011;42154;51.992;5.896;2023-08-06T05:01:32;9.20;;;7.30;;
56239;SDS011;42154;51.992;5.896;2023-08-06T05:03:58;10.60;;;7.93;;
56239;SDS011;42154;51.992;5.896;2023-08-06T05:06:24;8.23;;;7.22;;
56239;SDS011;42154;51.992;5.896;2023-08-06T05:08:49;12.10;;;8.52;;
56239;SDS011;42154;51.992;5.896;2023-08-06T05:11:15;10.48;;;7.55;;
56239;SDS011;42154;51.992;5.896;2023-08-06T05:13:41;8.32;;;7.18;;
56239;SDS011;42154;51.992;5.896;2023-08-06T05:16:07;7.75;;;6.95;;
56239;SDS011;42154;51.992;5.896;2023-08-06T05:18:32;11.55;;;9.52;;
56239;SDS011;42154;51.992;5.896;2023-08-06T05:20:59;9.65;;;8.00;;
56239;SDS011;42154;51.992;5.896;2023-08-06T05:23:25;10.60;;;7.45;;
56239;SDS011;42154;51.992;5.896;2023-08-06T05:25:51;9.07;;;6.70;;
56239;SDS011;42154;51.992;5.896;2023-08-06T05:28:17;9.10;;;7.38;;
56239;SDS011;42154;51.992;5.896;2023-08-06T05:30:43;9.25;;;6.47;;
56239;SDS011;42154;51.992;5.896;2023-08-06T05:33:09;8.57;;;6.80;;
56239;SDS011;42154;51.992;5.896;2023-08-06T05:35:35;8.27;;;7.22;;
56239;SDS011;42154;51.992;5.896;2023-08-06T05:38:01;10.60;;;8.48;;
56239;SDS011;42154;51.992;5.896;2023-08-06T05:40:26;10.60;;;8.32;;
56239;SDS011;42154;51.992;5.896;2023-08-06T05:42:55;11.75;;;8.57;;
56239;SDS011;42154;51.992;5.896;2023-08-06T05:45:21;10.07;;;8.95;;
56239;SDS011;42154;51.992;5.896;2023-08-06T05:47:50;10.80;;;9.32;;
56239;SDS011;42154;51.992;5.896;2023-08-06T05:50:15;9.55;;;8.52;;
56239;SDS011;42154;51.992;5.896;2023-08-06T05:52:41;11.88;;;10.68;;
56239;SDS011;42154;51.992;5.896;2023-08-06T05:55:07;12.35;;;10.80;;
56239;SDS011;42154;51.992;5.896;2023-08-06T05:57:33;12.15;;;10.70;;
56239;SDS011;42154;51.992;5.896;2023-08-06T05:59:59;11.00;;;9.43;;
56239;SDS011;42154;51.992;5.896;2023-08-06T06:02:26;14.30;;;12.50;;
56239;SDS011;42154;51.992;5.896;2023-08-06T06:04:51;15.57;;;12.65;;
56239;SDS011;42154;51.992;5.896;2023-08-06T06:07:17;13.88;;;11.60;;
56239;SDS011;42154;51.992;5.896;2023-08-06T06:09:43;11.98;;;10.25;;
56239;SDS011;42154;51.992;5.896;2023-08-06T06:12:08;13.57;;;10.32;;
56239;SDS011;42154;51.992;5.896;2023-08-06T06:14:34;12.38;;;10.52;;
56239;SDS011;42154;51.992;5.896;2023-08-06T06:17:00;21.48;;;17.42;;
56239;SDS011;42154;51.992;5.896;2023-08-06T06:19:26;15.55;;;13.70;;
56239;SDS011;42154;51.992;5.896;2023-08-06T06:21:51;14.52;;;12.18;;
56239;SDS011;42154;51.992;5.896;2023-08-06T06:24:18;14.70;;;12.30;;
56239;SDS011;42154;51.992;5.896;2023-08-06T06:26:44;17.50;;;12.75;;
56239;SDS011;42154;51.992;5.896;2023-08-06T06:29:09;15.57;;;12.35;;
56239;SDS011;42154;51.992;5.896;2023-08-06T06:31:35;17.60;;;15.55;;
56239;SDS011;42154;51.992;5.896;2023-08-06T06:34:01;14.48;;;12.45;;
56239;SDS011;42154;51.992;5.896;2023-08-06T06:36:27;14.20;;;11.68;;
56239;SDS011;42154;51.992;5.896;2023-08-06T06:38:52;15.10;;;12.45;;
56239;SDS011;42154;51.992;5.896;2023-08-06T06:41:18;16.35;;;12.88;;
56239;SDS011;42154;51.992;5.896;2023-08-06T06:43:44;15.68;;;13.63;;
56239;SDS011;42154;51.992;5.896;2023-08-06T06:46:09;19.80;;;14.57;;
56239;SDS011;42154;51.992;5.896;2023-08-06T06:48:35;15.77;;;12.65;;
56239;SDS011;42154;51.992;5.896;2023-08-06T06:51:01;13.13;;;11.40;;
56239;SDS011;42154;51.992;5.896;2023-08-06T06:53:28;15.13;;;12.10;;
56239;SDS011;42154;51.992;5.896;2023-08-06T06:55:54;16.35;;;11.02;;
56239;SDS011;42154;51.992;5.896;2023-08-06T06:58:20;15.93;;;13.82;;
56239;SDS011;42154;51.992;5.896;2023-08-06T07:00:49;14.48;;;12.25;;
56239;SDS011;42154;51.992;5.896;2023-08-06T07:03:15;15.20;;;11.85;;
56239;SDS011;42154;51.992;5.896;2023-08-06T07:05:41;13.98;;;12.40;;
56239;SDS011;42154;51.992;5.896;2023-08-06T07:08:08;13.85;;;11.95;;
56239;SDS011;42154;51.992;5.896;2023-08-06T07:10:33;16.20;;;12.63;;
56239;SDS011;42154;51.992;5.896;2023-08-06T07:12:59;15.23;;;12.43;;
56239;SDS011;42154;51.992;5.896;2023-08-06T07:15:25;13.98;;;11.95;;
56239;SDS011;42154;51.992;5.896;2023-08-06T07:17:51;15.57;;;12.77;;
56239;SDS011;42154;51.992;5.896;2023-08-06T07:20:17;13.68;;;12.07;;
56239;SDS011;42154;51.992;5.896;2023-08-06T07:22:43;14.05;;;12.43;;
56239;SDS011;42154;51.992;5.896;2023-08-06T07:25:09;13.07;;;11.25;;
56239;SDS011;42154;51.992;5.896;2023-08-06T07:27:35;12.32;;;10.68;;
56239;SDS011;42154;51.992;5.896;2023-08-06T07:30:00;13.63;;;10.90;;
56239;SDS011;42154;51.992;5.896;2023-08-06T07:32:26;11.90;;;10.55;;
56239;SDS011;42154;51.992;5.896;2023-08-06T07:34:53;10.88;;;9.43;;
56239;SDS011;42154;51.992;5.896;2023-08-06T07:37:24;10.27;;;9.27;;
56239;SDS011;42154;51.992;5.896;2023-08-06T07:39:50;11.23;;;9.80;;
56239;SDS011;42154;51.992;5.896;2023-08-06T07:42:16;11.98;;;10.35;;
56239;SDS011;42154;51.992;5.896;2023-08-06T07:44:41;12.10;;;10.52;;
56239;SDS011;42154;51.992;5.896;2023-08-06T07:47:07;11.85;;;10.27;;
56239;SDS011;42154;51.992;5.896;2023-08-06T07:49:33;11.68;;;9.48;;
56239;SDS011;42154;51.992;5.896;2023-08-06T07:51:58;9.73;;;8.70;;
56239;SDS011;42154;51.992;5.896;2023-08-06T07:54:24;10.98;;;8.95;;
56239;SDS011;42154;51.992;5.896;2023-08-06T07:56:50;12.13;;;10.30;;
56239;SDS011;42154;51.992;5.896;2023-08-06T07:59:16;15.27;;;13.65;;
56239;SDS011;42154;51.992;5.896;2023-08-06T08:01:41;11.77;;;10.10;;
56239;SDS011;42154;51.992;5.896;2023-08-06T08:04:07;10.63;;;9.55;;
56239;SDS011;42154;51.992;5.896;2023-08-06T08:06:33;10.93;;;9.15;;
56239;SDS011;42154;51.992;5.896;2023-08-06T08:08:59;13.75;;;11.88;;
56239;SDS011;42154;51.992;5.896;2023-08-06T08:11:25;11.77;;;9.07;;
56239;SDS011;42154;51.992;5.896;2023-08-06T08:13:51;9.43;;;8.43;;
56239;SDS011;42154;51.992;5.896;2023-08-06T08:16:16;9.25;;;8.20;;
56239;SDS011;42154;51.992;5.896;2023-08-06T08:18:42;8.80;;;7.95;;
56239;SDS011;42154;51.992;5.896;2023-08-06T08:21:08;8.50;;;7.68;;
56239;SDS011;42154;51.992;5.896;2023-08-06T08:23:34;15.30;;;12.88;;
56239;SDS011;42154;51.992;5.896;2023-08-06T08:25:59;9.20;;;8.20;;
56239;SDS011;42154;51.992;5.896;2023-08-06T08:28:27;10.73;;;9.60;;
56239;SDS011;42154;51.992;5.896;2023-08-06T08:30:53;10.23;;;9.18;;
56239;SDS011;42154;51.992;5.896;2023-08-06T08:33:18;12.57;;;10.65;;
56239;SDS011;42154;51.992;5.896;2023-08-06T08:35:45;11.85;;;10.20;;
56239;SDS011;42154;51.992;5.896;2023-08-06T08:38:11;12.52;;;11.10;;
56239;SDS011;42154;51.992;5.896;2023-08-06T08:40:38;12.35;;;9.20;;
56239;SDS011;42154;51.992;5.896;2023-08-06T08:43:11;10.15;;;8.20;;
56239;SDS011;42154;51.992;5.896;2023-08-06T08:45:39;9.13;;;8.13;;
56239;SDS011;42154;51.992;5.896;2023-08-06T08:48:07;9.25;;;8.30;;
56239;SDS011;42154;51.992;5.896;2023-08-06T08:50:37;11.43;;;9.00;;
56239;SDS011;42154;51.992;5.896;2023-08-06T08:53:03;12.98;;;10.60;;
56239;SDS011;42154;51.992;5.896;2023-08-06T08:55:30;11.93;;;10.18;;
56239;SDS011;42154;51.992;5.896;2023-08-06T08:57:57;9.70;;;8.70;;
56239;SDS011;42154;51.992;5.896;2023-08-06T09:00:23;9.13;;;8.23;;
56239;SDS011;42154;51.992;5.896;2023-08-06T09:02:50;9.55;;;8.48;;
56239;SDS011;42154;51.992;5.896;2023-08-06T09:05:17;12.23;;;9.80;;
56239;SDS011;42154;51.992;5.896;2023-08-06T09:07:46;10.13;;;9.10;;
56239;SDS011;42154;51.992;5.896;2023-08-06T09:10:14;8.15;;;6.97;;
56239;SDS011;42154;51.992;5.896;2023-08-06T09:12:43;7.35;;;6.22;;
56239;SDS011;42154;51.992;5.896;2023-08-06T09:15:10;10.35;;;8.13;;
56239;SDS011;42154;51.992;5.896;2023-08-06T09:17:36;7.10;;;6.40;;
56239;SDS011;42154;51.992;5.896;2023-08-06T09:20:08;8.07;;;7.25;;
56239;SDS011;42154;51.992;5.896;2023-08-06T09:22:38;7.30;;;6.53;;
56239;SDS011;42154;51.992;5.896;2023-08-06T09:25:04;7.57;;;6.78;;
56239;SDS011;42154;51.992;5.896;2023-08-06T09:27:35;8.20;;;7.05;;
56239;SDS011;42154;51.992;5.896;2023-08-06T09:30:02;7.35;;;6.32;;
56239;SDS011;42154;51.992;5.896;2023-08-06T09:32:43;8.77;;;6.47;;
56239;SDS011;42154;51.992;5.896;2023-08-06T09:35:19;6.85;;;6.15;;
56239;SDS011;42154;51.992;5.896;2023-08-06T09:37:45;7.53;;;6.32;;
56239;SDS011;42154;51.992;5.896;2023-08-06T09:40:27;7.45;;;6.53;;
56239;SDS011;42154;51.992;5.896;2023-08-06T09:42:54;8.13;;;6.50;;
56239;SDS011;42154;51.992;5.896;2023-08-06T09:45:21;7.75;;;7.05;;
56239;SDS011;42154;51.992;5.896;2023-08-06T09:47:48;8.40;;;5.65;;
56239;SDS011;42154;51.992;5.896;2023-08-06T09:50:18;6.72;;;5.65;;
56239;SDS011;42154;51.992;5.896;2023-08-06T09:52:44;6.88;;;6.22;;
56239;SDS011;42154;51.992;5.896;2023-08-06T09:55:12;6.85;;;6.05;;
56239;SDS011;42154;51.992;5.896;2023-08-06T09:57:39;7.13;;;5.90;;
56239;SDS011;42154;51.992;5.896;2023-08-06T10:00:07;9.85;;;8.25;;
56239;SDS011;42154;51.992;5.896;2023-08-06T10:02:38;8.40;;;7.53;;
56239;SDS011;42154;51.992;5.896;2023-08-06T10:05:05;8.75;;;7.95;;
56239;SDS011;42154;51.992;5.896;2023-08-06T10:07:32;11.98;;;8.50;;
56239;SDS011;42154;51.992;5.896;2023-08-06T10:09:59;8.82;;;7.90;;
56239;SDS011;42154;51.992;5.896;2023-08-06T10:12:25;9.60;;;8.45;;
56239;SDS011;42154;51.992;5.896;2023-08-06T10:15:01;7.95;;;6.97;;
56239;SDS011;42154;51.992;5.896;2023-08-06T10:17:31;9.90;;;8.90;;
56239;SDS011;42154;51.992;5.896;2023-08-06T10:19:59;13.10;;;11.70;;
56239;SDS011;42154;51.992;5.896;2023-08-06T10:22:25;10.70;;;9.60;;
56239;SDS011;42154;51.992;5.896;2023-08-06T10:24:53;12.68;;;11.43;;
56239;SDS011;42154;51.992;5.896;2023-08-06T10:27:33;15.57;;;13.85;;
56239;SDS011;42154;51.992;5.896;2023-08-06T10:32:54;9.15;;;7.43;;
56239;SDS011;42154;51.992;5.896;2023-08-06T10:38:09;3.70;;;2.25;;
56239;SDS011;42154;51.992;5.896;2023-08-06T10:41:21;1.85;;;1.35;;
56239;SDS011;42154;51.992;5.896;2023-08-06T10:51:02;1.30;;;0.75;;
56239;SDS011;42154;51.992;5.896;2023-08-06T10:53:28;2.13;;;1.10;;
56239;SDS011;42154;51.992;5.896;2023-08-06T10:55:54;0.85;;;0.60;;
56239;SDS011;42154;51.992;5.896;2023-08-06T10:58:20;1.33;;;0.90;;
56239;SDS011;42154;51.992;5.896;2023-08-06T11:00:46;1.60;;;0.90;;
56239;SDS011;42154;51.992;5.896;2023-08-06T11:03:12;2.65;;;0.90;;
56239;SDS011;42154;51.992;5.896;2023-08-06T11:05:38;2.13;;;0.70;;
56239;SDS011;42154;51.992;5.896;2023-08-06T11:08:04;1.30;;;1.05;;
56239;SDS011;42154;51.992;5.896;2023-08-06T11:10:32;1.17;;;0.70;;
56239;SDS011;42154;51.992;5.896;2023-08-06T11:13:02;3.55;;;1.20;;
56239;SDS011;42154;51.992;5.896;2023-08-06T11:15:32;1.33;;;0.98;;
56239;SDS011;42154;51.992;5.896;2023-08-06T11:17:58;1.55;;;1.00;;
56239;SDS011;42154;51.992;5.896;2023-08-06T11:20:24;1.13;;;0.85;;
56239;SDS011;42154;51.992;5.896;2023-08-06T11:22:49;2.03;;;1.10;;
56239;SDS011;42154;51.992;5.896;2023-08-06T11:25:15;1.75;;;1.00;;
56239;SDS011;42154;51.992;5.896;2023-08-06T11:27:45;1.95;;;0.90;;
56239;SDS011;42154;51.992;5.896;2023-08-06T11:30:11;1.67;;;1.40;;
56239;SDS011;42154;51.992;5.896;2023-08-06T11:32:46;1.60;;;1.42;;
56239;SDS011;42154;51.992;5.896;2023-08-06T11:35:13;1.92;;;1.38;;
56239;SDS011;42154;51.992;5.896;2023-08-06T11:37:43;2.83;;;2.05;;
56239;SDS011;42154;51.992;5.896;2023-08-06T11:40:11;2.72;;;2.08;;
56239;SDS011;42154;51.992;5.896;2023-08-06T11:42:37;5.47;;;2.30;;
56239;SDS011;42154;51.992;5.896;2023-08-06T11:45:03;2.90;;;2.20;;
56239;SDS011;42154;51.992;5.896;2023-08-06T11:47:29;2.28;;;1.70;;
56239;SDS011;42154;51.992;5.896;2023-08-06T11:49:55;2.60;;;1.95;;
56239;SDS011;42154;51.992;5.896;2023-08-06T11:52:22;2.10;;;1.60;;
56239;SDS011;42154;51.992;5.896;2023-08-06T11:57:37;3.13;;;2.30;;
56239;SDS011;42154;51.992;5.896;2023-08-06T12:00:09;2.50;;;1.60;;
56239;SDS011;42154;51.992;5.896;2023-08-06T12:02:43;2.55;;;2.00;;
56239;SDS011;42154;51.992;5.896;2023-08-06T12:07:37;1.98;;;1.73;;
56239;SDS011;42154;51.992;5.896;2023-08-06T12:10:11;5.10;;;2.33;;
56239;SDS011;42154;51.992;5.896;2023-08-06T12:12:38;2.50;;;2.30;;
56239;SDS011;42154;51.992;5.896;2023-08-06T12:15:04;4.40;;;2.50;;
56239;SDS011;42154;51.992;5.896;2023-08-06T12:17:31;3.22;;;2.00;;
56239;SDS011;42154;51.992;5.896;2023-08-06T12:19:57;4.22;;;2.60;;
56239;SDS011;42154;51.992;5.896;2023-08-06T12:22:23;4.55;;;3.05;;
56239;SDS011;42154;51.992;5.896;2023-08-06T12:24:49;3.25;;;2.50;;
56239;SDS011;42154;51.992;5.896;2023-08-06T12:27:15;4.97;;;3.45;;
56239;SDS011;42154;51.992;5.896;2023-08-06T12:29:45;4.30;;;2.83;;
56239;SDS011;42154;51.992;5.896;2023-08-06T12:32:13;4.15;;;2.80;;
56239;SDS011;42154;51.992;5.896;2023-08-06T12:34:39;4.20;;;2.50;;
56239;SDS011;42154;51.992;5.896;2023-08-06T12:37:06;3.65;;;2.25;;
56239;SDS011;42154;51.992;5.896;2023-08-06T12:39:35;4.07;;;2.65;;
56239;SDS011;42154;51.992;5.896;2023-08-06T12:42:02;4.45;;;3.22;;
56239;SDS011;42154;51.992;5.896;2023-08-06T12:44:28;4.70;;;3.90;;
56239;SDS011;42154;51.992;5.896;2023-08-06T12:46:54;4.70;;;3.40;;
56239;SDS011;42154;51.992;5.896;2023-08-06T12:49:20;4.45;;;3.20;;
56239;SDS011;42154;51.992;5.896;2023-08-06T12:51:47;4.40;;;3.15;;
56239;SDS011;42154;51.992;5.896;2023-08-06T12:54:13;6.35;;;3.53;;
56239;SDS011;42154;51.992;5.896;2023-08-06T12:56:39;4.05;;;3.00;;
56239;SDS011;42154;51.992;5.896;2023-08-06T12:59:05;4.90;;;3.45;;
56239;SDS011;42154;51.992;5.896;2023-08-06T13:01:31;5.53;;;2.83;;
56239;SDS011;42154;51.992;5.896;2023-08-06T13:03:57;6.43;;;3.20;;
56239;SDS011;42154;51.992;5.896;2023-08-06T13:06:23;11.32;;;3.22;;
56239;SDS011;42154;51.992;5.896;2023-08-06T13:08:49;4.95;;;3.08;;
56239;SDS011;42154;51.992;5.896;2023-08-06T13:11:15;4.07;;;3.30;;
56239;SDS011;42154;51.992;5.896;2023-08-06T13:13:40;5.47;;;3.03;;
56239;SDS011;42154;51.992;5.896;2023-08-06T13:16:06;4.03;;;2.72;;
56239;SDS011;42154;51.992;5.896;2023-08-06T13:18:32;4.15;;;2.92;;
56239;SDS011;42154;51.992;5.896;2023-08-06T13:20:57;4.47;;;3.08;;
56239;SDS011;42154;51.992;5.896;2023-08-06T13:23:23;7.10;;;3.63;;
56239;SDS011;42154;51.992;5.896;2023-08-06T13:25:49;4.03;;;2.70;;
56239;SDS011;42154;51.992;5.896;2023-08-06T13:28:15;4.30;;;3.05;;
56239;SDS011;42154;51.992;5.896;2023-08-06T13:30:40;6.40;;;2.97;;
56239;SDS011;42154;51.992;5.896;2023-08-06T13:33:09;3.30;;;2.75;;
56239;SDS011;42154;51.992;5.896;2023-08-06T13:35:35;5.97;;;3.20;;
56239;SDS011;42154;51.992;5.896;2023-08-06T13:38:01;3.95;;;2.88;;
56239;SDS011;42154;51.992;5.896;2023-08-06T13:40:32;4.80;;;3.25;;
56239;SDS011;42154;51.992;5.896;2023-08-06T13:42:58;2.78;;;1.98;;
56239;SDS011;42154;51.992;5.896;2023-08-06T13:45:25;5.10;;;2.70;;
56239;SDS011;42154;51.992;5.896;2023-08-06T13:47:51;5.35;;;2.90;;
56239;SDS011;42154;51.992;5.896;2023-08-06T13:50:16;4.97;;;3.28;;
56239;SDS011;42154;51.992;5.896;2023-08-06T13:52:42;4.88;;;2.72;;
56239;SDS011;42154;51.992;5.896;2023-08-06T13:55:08;3.08;;;2.30;;
56239;SDS011;42154;51.992;5.896;2023-08-06T13:57:34;5.13;;;2.88;;
56239;SDS011;42154;51.992;5.896;2023-08-06T14:00:00;6.20;;;3.22;;
56239;SDS011;42154;51.992;5.896;2023-08-06T14:02:26;4.05;;;2.67;;
56239;SDS011;42154;51.992;5.896;2023-08-06T14:04:52;5.93;;;3.22;;
56239;SDS011;42154;51.992;5.896;2023-08-06T14:07:18;3.60;;;3.10;;
56239;SDS011;42154;51.992;5.896;2023-08-06T14:09:44;3.58;;;3.25;;
56239;SDS011;42154;51.992;5.896;2023-08-06T14:12:12;6.55;;;3.13;;
56239;SDS011;42154;51.992;5.896;2023-08-06T14:14:38;4.53;;;3.45;;
56239;SDS011;42154;51.992;5.896;2023-08-06T14:17:05;4.95;;;3.25;;
56239;SDS011;42154;51.992;5.896;2023-08-06T14:19:31;3.60;;;2.90;;
56239;SDS011;42154;51.992;5.896;2023-08-06T14:21:56;4.75;;;3.25;;
56239;SDS011;42154;51.992;5.896;2023-08-06T14:24:22;3.75;;;2.90;;
56239;SDS011;42154;51.992;5.896;2023-08-06T14:26:48;2.85;;;2.55;;
56239;SDS011;42154;51.992;5.896;2023-08-06T14:29:14;7.80;;;4.45;;
56239;SDS011;42154;51.992;5.896;2023-08-06T14:31:40;5.85;;;3.80;;
56239;SDS011;42154;51.992;5.896;2023-08-06T14:34:06;5.75;;;2.80;;
56239;SDS011;42154;51.992;5.896;2023-08-06T14:36:32;4.70;;;3.33;;
56239;SDS011;42154;51.992;5.896;2023-08-06T14:38:58;3.95;;;3.53;;
56239;SDS011;42154;51.992;5.896;2023-08-06T14:41:24;5.05;;;4.07;;
56239;SDS011;42154;51.992;5.896;2023-08-06T14:43:50;6.47;;;3.63;;
56239;SDS011;42154;51.992;5.896;2023-08-06T14:46:15;4.25;;;3.50;;
56239;SDS011;42154;51.992;5.896;2023-08-06T14:48:41;4.93;;;3.30;;
56239;SDS011;42154;51.992;5.896;2023-08-06T14:51:07;6.57;;;3.72;;
56239;SDS011;42154;51.992;5.896;2023-08-06T14:53:34;4.13;;;3.58;;
56239;SDS011;42154;51.992;5.896;2023-08-06T14:56:00;3.95;;;3.08;;
56239;SDS011;42154;51.992;5.896;2023-08-06T14:58:25;5.07;;;2.90;;
56239;SDS011;42154;51.992;5.896;2023-08-06T15:00:52;7.15;;;3.67;;